createdAt,value
2022-08-14T00:00:29.879Z,1006.61
2022-08-14T00:01:30.239Z,1006.61
2022-08-14T00:02:31.504Z,1006.59
2022-08-14T00:03:29.775Z,1006.55
2022-08-14T00:04:35.702Z,1006.53
2022-08-14T00:05:30.331Z,1006.54
2022-08-14T00:06:29.402Z,1006.50
2022-08-14T00:07:29.305Z,1006.49
2022-08-14T00:08:44.551Z,1006.44
2022-08-14T00:09:32.913Z,1006.47
2022-08-14T00:10:52.121Z,1006.45
2022-08-14T00:11:31.846Z,1006.45
2022-08-14T00:12:33.762Z,1006.43
2022-08-14T00:13:30.978Z,1006.49
2022-08-14T00:14:29.260Z,1006.44
2022-08-14T00:15:29.999Z,1006.43
2022-08-14T00:16:40.901Z,1006.47
2022-08-14T00:17:30.188Z,1006.43
2022-08-14T00:18:30.979Z,1006.46
2022-08-14T00:19:30.173Z,1006.46
2022-08-14T00:20:30.938Z,1006.43
2022-08-14T00:21:31.113Z,1006.40
2022-08-14T00:22:56.600Z,1006.38
2022-08-14T00:23:30.156Z,1006.35
2022-08-14T00:24:31.054Z,1006.35
2022-08-14T00:25:41.603Z,1006.31
2022-08-14T00:26:30.122Z,1006.32
2022-08-14T00:27:29.730Z,1006.29
2022-08-14T00:28:34.805Z,1006.27
2022-08-14T00:29:30.062Z,1006.32
2022-08-14T00:30:29.048Z,1006.31
2022-08-14T00:31:34.705Z,1006.33
2022-08-14T00:32:52.447Z,1006.31
2022-08-14T00:33:49.210Z,1006.32
2022-08-14T00:34:36.859Z,1006.31
2022-08-14T00:36:36.817Z,1006.33
2022-08-14T00:36:37.372Z,1006.33
2022-08-14T00:37:29.987Z,1006.28
2022-08-14T00:38:28.983Z,1006.33
2022-08-14T00:39:28.981Z,1006.31
2022-08-14T00:40:33.334Z,1006.31
2022-08-14T00:41:29.924Z,1006.25
2022-08-14T00:42:54.871Z,1006.23
2022-08-14T00:43:32.315Z,1006.17
2022-08-14T00:44:32.623Z,1006.19
2022-08-14T00:45:30.606Z,1006.18
2022-08-14T00:46:33.039Z,1006.18
2022-08-14T00:47:28.859Z,1006.16
2022-08-14T00:48:34.881Z,1006.19
2022-08-14T00:49:30.271Z,1006.19
2022-08-14T00:50:28.854Z,1006.16
2022-08-14T00:51:36.853Z,1006.14
2022-08-14T00:52:29.811Z,1006.14
2022-08-14T00:53:28.806Z,1006.12
2022-08-14T00:54:28.790Z,1006.15
2022-08-14T00:55:30.151Z,1006.12
2022-08-14T00:56:31.470Z,1006.12
2022-08-14T00:57:28.960Z,1006.08
2022-08-14T00:58:32.965Z,1006.11
2022-08-14T00:59:29.017Z,1006.10
2022-08-14T01:00:37.468Z,1006.08
2022-08-14T01:01:29.769Z,1006.00
2022-08-14T01:02:31.890Z,1006.01
2022-08-14T01:03:28.716Z,1005.97
2022-08-14T01:04:52.345Z,1005.94
2022-08-14T01:05:41.771Z,1005.93
2022-08-14T01:06:30.327Z,1005.92
2022-08-14T01:07:28.638Z,1005.91
2022-08-14T01:08:58.305Z,1005.90
2022-08-14T01:09:29.622Z,1005.88
2022-08-14T01:10:28.614Z,1005.88
2022-08-14T01:11:31.529Z,1005.86
2022-08-14T01:12:30.290Z,1005.85
2022-08-14T01:13:28.588Z,1005.86
2022-08-14T01:14:29.578Z,1005.88
2022-08-14T01:15:31.757Z,1005.85
2022-08-14T01:16:31.079Z,1005.85
2022-08-14T01:17:28.533Z,1005.81
2022-08-14T01:18:28.529Z,1005.83
2022-08-14T01:19:28.505Z,1005.78
2022-08-14T01:20:29.813Z,1005.77
2022-08-14T01:21:28.484Z,1005.72
2022-08-14T01:22:29.541Z,1005.69
2022-08-14T01:23:41.824Z,1005.72
2022-08-14T01:24:30.862Z,1005.66
2022-08-14T01:25:29.443Z,1005.65
2022-08-14T01:26:35.255Z,1005.64
2022-08-14T01:27:29.828Z,1005.59
2022-08-14T01:28:46.248Z,1005.53
2022-08-14T01:29:59.053Z,1005.50
2022-08-14T01:30:29.392Z,1005.51
2022-08-14T01:31:28.374Z,1005.50
2022-08-14T01:32:29.983Z,1005.50
2022-08-14T01:33:28.366Z,1005.49
2022-08-14T01:35:20.041Z,1005.48
2022-08-14T01:36:05.496Z,1005.42
2022-08-14T01:36:29.319Z,1005.44
2022-08-14T01:37:29.298Z,1005.41
2022-08-14T01:38:28.308Z,1005.39
2022-08-14T01:39:28.342Z,1005.39
2022-08-14T01:40:33.193Z,1005.36
2022-08-14T01:41:30.175Z,1005.33
2022-08-14T01:46:06.959Z,1005.25
2022-08-14T01:47:01.275Z,1005.25
2022-08-14T01:48:02.973Z,1005.25
2022-08-14T01:48:58.637Z,1005.22
2022-08-14T01:50:01.170Z,1005.23
2022-08-14T01:50:57.592Z,1005.22
2022-08-14T01:51:57.581Z,1005.24
2022-08-14T01:52:59.055Z,1005.21
2022-08-14T01:53:57.577Z,1005.17
2022-08-14T01:54:58.350Z,1005.17
2022-08-14T01:55:57.543Z,1005.16
2022-08-14T01:56:57.531Z,1005.15
2022-08-14T01:58:01.350Z,1005.12
2022-08-14T01:58:58.517Z,1005.11
2022-08-14T01:59:57.492Z,1005.08
2022-08-14T02:00:57.487Z,1005.04
2022-08-14T02:01:58.662Z,1005.07
2022-08-14T02:02:57.634Z,1005.06
2022-08-14T02:03:57.487Z,1005.07
2022-08-14T02:04:57.891Z,1005.09
2022-08-14T02:05:57.430Z,1005.11
2022-08-14T02:06:57.420Z,1005.10
2022-08-14T02:08:09.832Z,1005.09
2022-08-14T02:08:58.406Z,1005.08
2022-08-14T02:09:57.379Z,1005.10
2022-08-14T02:10:57.368Z,1005.10
2022-08-14T02:11:57.365Z,1005.12
2022-08-14T02:12:57.620Z,1005.14
2022-08-14T02:13:57.349Z,1005.14
2022-08-14T02:15:00.469Z,1005.12
2022-08-14T02:15:57.320Z,1005.13
2022-08-14T02:16:57.310Z,1005.10
2022-08-14T02:17:57.298Z,1005.14
2022-08-14T02:18:57.296Z,1005.13
2022-08-14T02:19:57.279Z,1005.10
2022-08-14T02:20:57.288Z,1005.12
2022-08-14T02:21:57.247Z,1005.13
2022-08-14T02:22:58.241Z,1005.15
2022-08-14T02:23:57.412Z,1005.16
2022-08-14T02:24:57.219Z,1005.18
2022-08-14T02:25:57.202Z,1005.17
2022-08-14T02:28:20.277Z,1005.20
2022-08-14T02:28:23.805Z,1005.19
2022-08-14T02:28:59.777Z,1005.18
2022-08-14T02:29:59.863Z,1005.17
2022-08-14T02:30:57.145Z,1005.16
2022-08-14T02:31:57.144Z,1005.15
2022-08-14T02:32:57.129Z,1005.18
2022-08-14T02:33:57.133Z,1005.16
2022-08-14T02:34:57.100Z,1005.16
2022-08-14T02:36:04.938Z,1005.16
2022-08-14T02:37:03.510Z,1005.12
2022-08-14T02:37:58.067Z,1005.18
2022-08-14T02:38:57.071Z,1005.19
2022-08-14T02:39:57.077Z,1005.17
2022-08-14T02:40:57.040Z,1005.20
2022-08-14T02:41:57.900Z,1005.20
2022-08-14T02:42:57.602Z,1005.20
2022-08-14T02:44:00.650Z,1005.24
2022-08-14T02:44:56.995Z,1005.25
2022-08-14T02:45:56.986Z,1005.24
2022-08-14T02:47:01.136Z,1005.26
2022-08-14T02:47:57.391Z,1005.26
2022-08-14T02:49:02.533Z,1005.24
2022-08-14T02:49:57.934Z,1005.24
2022-08-14T02:50:56.930Z,1005.28
2022-08-14T02:51:56.912Z,1005.27
2022-08-14T02:53:02.986Z,1005.26
2022-08-14T02:53:57.911Z,1005.27
2022-08-14T02:54:56.883Z,1005.25
2022-08-14T02:56:03.225Z,1005.24
2022-08-14T02:57:16.077Z,1005.25
2022-08-14T02:58:03.492Z,1005.25
2022-08-14T02:59:00.246Z,1005.28
2022-08-14T02:59:56.833Z,1005.23
2022-08-14T03:00:57.401Z,1005.26
2022-08-14T03:01:56.879Z,1005.25
2022-08-14T03:02:58.798Z,1005.22
2022-08-14T03:03:56.794Z,1005.21
2022-08-14T03:04:56.767Z,1005.23
2022-08-14T03:05:56.763Z,1005.19
2022-08-14T03:07:06.086Z,1005.17
2022-08-14T03:07:57.740Z,1005.19
2022-08-14T03:08:56.737Z,1005.14
2022-08-14T03:10:27.979Z,1005.16
2022-08-14T03:10:57.705Z,1005.13
2022-08-14T03:11:56.690Z,1005.13
2022-08-14T03:12:56.682Z,1005.12
2022-08-14T03:13:59.237Z,1005.09
2022-08-14T03:14:56.657Z,1005.07
2022-08-14T03:15:58.056Z,1005.05
2022-08-14T03:16:56.638Z,1005.05
2022-08-14T03:17:58.545Z,1005.02
2022-08-14T03:18:56.632Z,1005.03
2022-08-14T03:19:56.600Z,1005.00
2022-08-14T03:20:56.588Z,1005.01
2022-08-14T03:21:56.577Z,1005.01
2022-08-14T03:22:56.575Z,1005.04
2022-08-14T03:23:56.578Z,1005.04
2022-08-14T03:24:56.544Z,1005.05
2022-08-14T03:25:56.542Z,1005.07
2022-08-14T03:26:57.597Z,1005.09
2022-08-14T03:27:58.703Z,1005.08
2022-08-14T03:28:56.518Z,1005.09
2022-08-14T03:29:56.496Z,1005.07
2022-08-14T03:30:56.484Z,1005.04
2022-08-14T03:31:56.477Z,1005.03
2022-08-14T03:32:56.461Z,1005.03
2022-08-14T03:33:56.460Z,1005.05
2022-08-14T03:34:56.439Z,1005.02
2022-08-14T03:36:05.645Z,1005.05
2022-08-14T03:37:37.937Z,1005.05
2022-08-14T03:39:11.748Z,1005.06
2022-08-14T03:39:14.228Z,1005.04
2022-08-14T03:39:57.439Z,1005.02
2022-08-14T03:40:56.366Z,1005.01
2022-08-14T03:41:56.364Z,1004.99
2022-08-14T03:42:57.350Z,1004.96
2022-08-14T03:44:01.208Z,1004.95
2022-08-14T03:45:26.903Z,1004.94
2022-08-14T03:45:57.316Z,1004.96
2022-08-14T03:46:56.440Z,1004.95
2022-08-14T03:48:01.675Z,1004.92
2022-08-14T03:48:57.295Z,1004.91
2022-08-14T03:49:56.272Z,1004.94
2022-08-14T03:50:56.274Z,1004.95
2022-08-14T03:51:57.673Z,1004.93
2022-08-14T03:52:57.428Z,1004.94
2022-08-14T03:53:56.237Z,1004.92
2022-08-14T03:54:56.211Z,1004.92
2022-08-14T03:55:56.200Z,1004.94
2022-08-14T03:56:56.189Z,1004.90
2022-08-14T03:57:56.178Z,1004.92
2022-08-14T03:58:56.188Z,1004.86
2022-08-14T03:59:56.155Z,1004.87
2022-08-14T04:00:56.199Z,1004.82
2022-08-14T04:02:01.919Z,1004.77
2022-08-14T04:02:57.128Z,1004.79
2022-08-14T04:03:56.128Z,1004.79
2022-08-14T04:04:56.107Z,1004.77
2022-08-14T04:05:57.089Z,1004.76
2022-08-14T04:06:58.828Z,1004.78
2022-08-14T04:08:08.399Z,1004.78
2022-08-14T04:08:58.035Z,1004.79
2022-08-14T04:09:56.053Z,1004.80
2022-08-14T04:10:56.034Z,1004.79
2022-08-14T04:11:59.511Z,1004.79
2022-08-14T04:12:56.020Z,1004.81
2022-08-14T04:13:55.998Z,1004.83
2022-08-14T04:14:56.012Z,1004.82
2022-08-14T04:16:04.743Z,1004.86
2022-08-14T04:16:56.966Z,1004.84
2022-08-14T04:17:55.957Z,1004.84
2022-08-14T04:18:55.954Z,1004.86
2022-08-14T04:19:55.954Z,1004.91
2022-08-14T04:20:56.051Z,1004.87
2022-08-14T04:22:03.410Z,1004.88
2022-08-14T04:22:56.900Z,1004.89
2022-08-14T04:23:57.221Z,1004.88
2022-08-14T04:24:55.903Z,1004.89
2022-08-14T04:25:55.876Z,1004.90
2022-08-14T04:26:55.860Z,1004.87
2022-08-14T04:28:03.153Z,1004.89
2022-08-14T04:29:08.975Z,1004.83
2022-08-14T04:29:56.840Z,1004.86
2022-08-14T04:30:55.814Z,1004.84
2022-08-14T04:32:58.578Z,1004.76
2022-08-14T04:33:04.453Z,1004.79
2022-08-14T04:33:56.786Z,1004.79
2022-08-14T04:34:55.794Z,1004.77
2022-08-14T04:35:56.774Z,1004.75
2022-08-14T04:36:55.748Z,1004.77
2022-08-14T04:37:55.743Z,1004.76
2022-08-14T04:38:55.727Z,1004.73
2022-08-14T04:39:57.168Z,1004.75
2022-08-14T04:40:55.706Z,1004.78
2022-08-14T04:41:55.692Z,1004.77
2022-08-14T04:42:55.693Z,1004.77
2022-08-14T04:43:55.678Z,1004.76
2022-08-14T04:45:00.573Z,1004.71
2022-08-14T04:45:56.654Z,1004.75
2022-08-14T04:46:57.764Z,1004.74
2022-08-14T04:47:55.627Z,1004.74
2022-08-14T04:48:59.953Z,1004.73
2022-08-14T04:49:56.842Z,1004.74
2022-08-14T04:50:55.593Z,1004.70
2022-08-14T04:51:56.208Z,1004.67
2022-08-14T04:52:55.797Z,1004.68
2022-08-14T04:53:55.560Z,1004.64
2022-08-14T04:54:55.570Z,1004.62
2022-08-14T04:55:55.538Z,1004.60
2022-08-14T04:56:55.529Z,1004.57
2022-08-14T04:57:55.525Z,1004.59
2022-08-14T04:58:55.514Z,1004.62
2022-08-14T04:59:55.511Z,1004.57
2022-08-14T05:00:55.491Z,1004.60
2022-08-14T05:01:57.306Z,1004.62
2022-08-14T05:02:55.470Z,1004.63
2022-08-14T05:03:55.485Z,1004.63
2022-08-14T05:04:57.261Z,1004.64
2022-08-14T05:05:55.429Z,1004.66
2022-08-14T05:06:55.592Z,1004.67
2022-08-14T05:08:01.433Z,1004.67
2022-08-14T05:08:59.711Z,1004.64
2022-08-14T05:09:55.404Z,1004.70
2022-08-14T05:10:55.385Z,1004.67
2022-08-14T05:11:55.367Z,1004.64
2022-08-14T05:13:24.223Z,1004.66
2022-08-14T05:14:42.763Z,1004.64
2022-08-14T05:14:56.421Z,1004.62
2022-08-14T05:15:55.326Z,1004.61
2022-08-14T05:16:55.314Z,1004.60
2022-08-14T05:18:03.572Z,1004.61
2022-08-14T05:19:17.871Z,1004.59
2022-08-14T05:21:04.894Z,1004.65
2022-08-14T05:21:55.893Z,1004.66
2022-08-14T05:22:01.178Z,1004.66
2022-08-14T05:22:56.356Z,1004.65
2022-08-14T05:23:55.504Z,1004.63
2022-08-14T05:24:55.235Z,1004.55
2022-08-14T05:25:55.215Z,1004.53
2022-08-14T05:26:55.337Z,1004.49
2022-08-14T05:27:55.184Z,1004.53
2022-08-14T05:28:55.173Z,1004.56
2022-08-14T05:29:56.840Z,1004.50
2022-08-14T05:30:55.159Z,1004.51
2022-08-14T05:31:56.022Z,1004.47
2022-08-14T05:32:55.129Z,1004.45
2022-08-14T05:33:57.085Z,1004.43
2022-08-14T05:34:55.129Z,1004.40
2022-08-14T05:35:55.094Z,1004.39
2022-08-14T05:37:02.461Z,1004.38
2022-08-14T05:37:56.077Z,1004.40
2022-08-14T05:38:55.377Z,1004.38
2022-08-14T05:39:55.241Z,1004.34
2022-08-14T05:40:55.041Z,1004.36
2022-08-14T05:41:55.028Z,1004.40
2022-08-14T05:42:55.026Z,1004.38
2022-08-14T05:43:55.008Z,1004.39
2022-08-14T05:44:55.256Z,1004.36
2022-08-14T05:45:55.024Z,1004.34
2022-08-14T05:46:54.980Z,1004.36
2022-08-14T05:47:54.961Z,1004.36
2022-08-14T05:48:54.952Z,1004.34
2022-08-14T05:49:54.953Z,1004.37
2022-08-14T05:50:54.937Z,1004.37
2022-08-14T05:51:54.918Z,1004.38
2022-08-14T05:52:55.334Z,1004.35
2022-08-14T05:54:00.161Z,1004.38
2022-08-14T05:54:55.906Z,1004.36
2022-08-14T05:55:54.874Z,1004.31
2022-08-14T05:56:55.240Z,1004.30
2022-08-14T05:57:54.857Z,1004.28
2022-08-14T05:58:54.849Z,1004.26
2022-08-14T05:59:54.849Z,1004.21
2022-08-14T06:00:54.817Z,1004.23
2022-08-14T06:01:54.890Z,1004.22
2022-08-14T06:02:54.797Z,1004.23
2022-08-14T06:03:54.857Z,1004.26
2022-08-14T06:04:54.801Z,1004.24
2022-08-14T06:05:54.761Z,1004.28
2022-08-14T06:06:54.758Z,1004.24
2022-08-14T06:07:54.741Z,1004.23
2022-08-14T06:08:54.736Z,1004.23
2022-08-14T06:09:54.732Z,1004.21
2022-08-14T06:10:54.715Z,1004.23
2022-08-14T06:11:54.696Z,1004.25
2022-08-14T06:12:55.922Z,1004.24
2022-08-14T06:13:54.679Z,1004.25
2022-08-14T06:14:54.681Z,1004.29
2022-08-14T06:15:54.659Z,1004.25
2022-08-14T06:16:54.642Z,1004.29
2022-08-14T06:17:59.207Z,1004.25
2022-08-14T06:18:55.619Z,1004.25
2022-08-14T06:19:54.629Z,1004.27
2022-08-14T06:20:54.601Z,1004.29
2022-08-14T06:21:59.164Z,1004.23
2022-08-14T06:22:55.586Z,1004.24
2022-08-14T06:23:54.572Z,1004.24
2022-08-14T06:24:54.575Z,1004.23
2022-08-14T06:25:54.555Z,1004.24
2022-08-14T06:27:03.945Z,1004.21
2022-08-14T06:27:55.525Z,1004.25
2022-08-14T06:28:54.510Z,1004.26
2022-08-14T06:29:54.523Z,1004.24
2022-08-14T06:30:54.496Z,1004.25
2022-08-14T06:32:00.496Z,1004.24
2022-08-14T06:32:55.781Z,1004.24
2022-08-14T06:35:11.405Z,1004.27
2022-08-14T06:35:11.553Z,1004.24
2022-08-14T06:35:55.430Z,1004.20
2022-08-14T06:36:54.427Z,1004.20
2022-08-14T06:37:54.414Z,1004.21
2022-08-14T06:38:54.405Z,1004.20
2022-08-14T06:39:54.505Z,1004.21
2022-08-14T06:40:54.375Z,1004.22
2022-08-14T06:41:57.626Z,1004.20
2022-08-14T06:42:54.733Z,1004.19
2022-08-14T06:43:54.351Z,1004.19
2022-08-14T06:44:54.344Z,1004.19
2022-08-14T06:45:54.697Z,1004.14
2022-08-14T06:46:54.311Z,1004.15
2022-08-14T06:47:54.298Z,1004.15
2022-08-14T06:48:54.289Z,1004.12
2022-08-14T06:49:57.670Z,1004.13
2022-08-14T06:50:54.265Z,1004.12
2022-08-14T06:51:54.261Z,1004.12
2022-08-14T06:52:54.248Z,1004.05
2022-08-14T06:53:54.231Z,1004.08
2022-08-14T06:54:54.244Z,1004.05
2022-08-14T06:55:59.545Z,1004.07
2022-08-14T06:56:57.094Z,1004.03
2022-08-14T06:57:54.197Z,1004.01
2022-08-14T06:58:54.182Z,1004.04
2022-08-14T06:59:54.182Z,1004.05
2022-08-14T07:00:54.193Z,1004.04
2022-08-14T07:01:56.711Z,1004.03
2022-08-14T07:02:54.139Z,1004.04
2022-08-14T07:03:54.124Z,1004.03
2022-08-14T07:04:54.130Z,1004.03
2022-08-14T07:05:57.535Z,1003.97
2022-08-14T07:06:55.496Z,1003.99
2022-08-14T07:07:55.078Z,1003.93
2022-08-14T07:08:54.078Z,1003.88
2022-08-14T07:09:54.082Z,1003.87
2022-08-14T07:10:54.049Z,1003.83
2022-08-14T07:11:54.037Z,1003.81
2022-08-14T07:12:56.677Z,1003.79
2022-08-14T07:13:55.034Z,1003.78
2022-08-14T07:14:58.252Z,1003.77
2022-08-14T07:15:55.348Z,1003.78
2022-08-14T07:16:53.991Z,1003.76
2022-08-14T07:17:54.087Z,1003.86
2022-08-14T07:18:53.962Z,1003.87
2022-08-14T07:19:53.971Z,1003.87
2022-08-14T07:20:53.948Z,1003.87
2022-08-14T07:21:53.930Z,1003.89
2022-08-14T07:22:56.454Z,1003.88
2022-08-14T07:23:53.911Z,1003.88
2022-08-14T07:24:53.914Z,1003.84
2022-08-14T07:25:53.895Z,1003.83
2022-08-14T07:26:53.877Z,1003.85
2022-08-14T07:27:53.865Z,1003.81
2022-08-14T07:28:53.853Z,1003.77
2022-08-14T07:29:53.842Z,1003.75
2022-08-14T07:30:53.846Z,1003.72
2022-08-14T07:31:53.833Z,1003.68
2022-08-14T07:32:53.812Z,1003.67
2022-08-14T07:33:53.806Z,1003.69
2022-08-14T07:34:53.796Z,1003.70
2022-08-14T07:35:57.534Z,1003.70
2022-08-14T07:37:00.620Z,1003.70
2022-08-14T07:37:54.754Z,1003.69
2022-08-14T07:38:53.747Z,1003.62
2022-08-14T07:39:53.812Z,1003.65
2022-08-14T07:40:53.738Z,1003.69
2022-08-14T07:41:53.722Z,1003.69
2022-08-14T07:42:53.708Z,1003.65
2022-08-14T07:43:56.049Z,1003.63
2022-08-14T07:44:53.687Z,1003.66
2022-08-14T07:45:53.899Z,1003.63
2022-08-14T07:46:53.664Z,1003.62
2022-08-14T07:47:53.652Z,1003.66
2022-08-14T07:48:53.648Z,1003.64
2022-08-14T07:49:55.449Z,1003.59
2022-08-14T07:50:57.235Z,1003.60
2022-08-14T07:51:54.598Z,1003.60
2022-08-14T07:52:53.591Z,1003.61
2022-08-14T07:53:56.776Z,1003.64
2022-08-14T07:54:53.580Z,1003.68
2022-08-14T07:56:00.236Z,1003.65
2022-08-14T07:56:56.704Z,1003.66
2022-08-14T07:57:53.542Z,1003.63
2022-08-14T07:58:53.535Z,1003.65
2022-08-14T07:59:53.525Z,1003.64
2022-08-14T08:00:56.392Z,1003.67
2022-08-14T08:01:53.506Z,1003.63
2022-08-14T08:02:55.792Z,1003.61
2022-08-14T08:03:56.908Z,1003.61
2022-08-14T08:04:58.849Z,1003.61
2022-08-14T08:05:54.471Z,1003.61
2022-08-14T08:06:53.439Z,1003.61
2022-08-14T08:07:53.434Z,1003.64
2022-08-14T08:09:01.008Z,1003.66
2022-08-14T08:09:54.423Z,1003.68
2022-08-14T08:11:03.055Z,1003.71
2022-08-14T08:11:57.397Z,1003.72
2022-08-14T08:12:53.385Z,1003.72
2022-08-14T08:13:54.473Z,1003.67
2022-08-14T08:14:56.082Z,1003.70
2022-08-14T08:15:54.364Z,1003.65
2022-08-14T08:16:53.337Z,1003.65
2022-08-14T08:18:01.348Z,1003.65
2022-08-14T08:18:58.278Z,1003.64
2022-08-14T08:19:54.305Z,1003.63
2022-08-14T08:20:53.623Z,1003.60
2022-08-14T08:21:53.277Z,1003.59
2022-08-14T08:22:55.616Z,1003.64
2022-08-14T08:23:53.263Z,1003.66
2022-08-14T08:24:53.247Z,1003.71
2022-08-14T08:25:53.259Z,1003.65
2022-08-14T08:26:53.229Z,1003.68
2022-08-14T08:27:53.212Z,1003.66
2022-08-14T08:28:53.201Z,1003.62
2022-08-14T08:29:53.198Z,1003.67
2022-08-14T08:30:53.200Z,1003.59
2022-08-14T08:31:53.176Z,1003.61
2022-08-14T08:32:53.157Z,1003.60
2022-08-14T08:33:53.155Z,1003.55
2022-08-14T08:34:53.136Z,1003.54
2022-08-14T08:35:53.151Z,1003.59
2022-08-14T08:36:53.123Z,1003.61
2022-08-14T08:38:00.930Z,1003.59
2022-08-14T08:39:17.976Z,1003.57
2022-08-14T08:40:02.678Z,1003.56
2022-08-14T08:40:54.147Z,1003.56
2022-08-14T08:41:54.136Z,1003.57
2022-08-14T08:42:54.398Z,1003.59
2022-08-14T08:43:54.039Z,1003.57
2022-08-14T08:44:53.094Z,1003.52
2022-08-14T08:45:53.072Z,1003.55
2022-08-14T08:46:53.039Z,1003.51
2022-08-14T08:47:53.097Z,1003.45
2022-08-14T08:49:59.914Z,1003.45
2022-08-14T08:50:54.006Z,1003.42
2022-08-14T08:51:52.970Z,1003.42
2022-08-14T08:52:52.946Z,1003.42
2022-08-14T08:53:52.929Z,1003.40
2022-08-14T08:54:52.929Z,1003.40
2022-08-14T08:55:52.928Z,1003.39
2022-08-14T08:56:52.905Z,1003.37
2022-08-14T08:57:52.895Z,1003.35
2022-08-14T08:58:52.873Z,1003.35
2022-08-14T08:59:54.642Z,1003.33
2022-08-14T09:00:54.359Z,1003.34
2022-08-14T09:01:56.460Z,1003.31
2022-08-14T09:02:52.840Z,1003.32
2022-08-14T09:03:52.832Z,1003.33
2022-08-14T09:04:53.618Z,1003.32
2022-08-14T09:05:53.983Z,1003.31
2022-08-14T09:07:09.565Z,1003.33
2022-08-14T09:07:56.558Z,1003.33
2022-08-14T09:08:52.766Z,1003.31
2022-08-14T09:09:54.369Z,1003.32
2022-08-14T09:10:56.395Z,1003.39
2022-08-14T09:11:52.741Z,1003.40
2022-08-14T09:12:52.729Z,1003.42
2022-08-14T09:13:52.937Z,1003.42
2022-08-14T09:14:52.702Z,1003.36
2022-08-14T09:15:52.712Z,1003.30
2022-08-14T09:16:52.696Z,1003.39
2022-08-14T09:17:52.679Z,1003.32
2022-08-14T09:18:53.360Z,1003.34
2022-08-14T09:19:52.648Z,1003.33
2022-08-14T09:20:52.657Z,1003.29
2022-08-14T09:21:55.027Z,1003.28
2022-08-14T09:22:52.957Z,1003.24
2022-08-14T09:24:28.679Z,1003.21
2022-08-14T09:24:53.598Z,1003.17
2022-08-14T09:25:59.955Z,1003.17
2022-08-14T09:26:53.578Z,1003.24
2022-08-14T09:27:52.571Z,1003.19
2022-08-14T09:28:53.520Z,1003.21
2022-08-14T09:29:54.103Z,1003.15
2022-08-14T09:30:52.551Z,1003.12
2022-08-14T09:31:53.169Z,1003.08
2022-08-14T09:32:59.264Z,1003.10
2022-08-14T09:33:56.473Z,1003.09
2022-08-14T09:34:58.727Z,1003.08
2022-08-14T09:35:55.034Z,1003.07
2022-08-14T09:36:52.466Z,1003.05
2022-08-14T09:37:53.909Z,1003.05
2022-08-14T09:38:52.451Z,1003.02
2022-08-14T09:39:52.482Z,1002.93
2022-08-14T09:40:52.441Z,1002.94
2022-08-14T09:42:21.684Z,1002.88
2022-08-14T09:42:53.746Z,1002.91
2022-08-14T09:43:52.394Z,1002.92
2022-08-14T09:44:52.387Z,1002.89
2022-08-14T09:45:53.860Z,1002.92
2022-08-14T09:46:52.360Z,1002.87
2022-08-14T09:47:52.476Z,1002.90
2022-08-14T09:48:52.339Z,1002.87
2022-08-14T09:49:53.399Z,1002.88
2022-08-14T09:50:52.333Z,1002.88
2022-08-14T09:51:58.813Z,1002.86
2022-08-14T09:52:54.919Z,1002.83
2022-08-14T09:54:18.711Z,1002.87
2022-08-14T09:54:53.279Z,1002.88
2022-08-14T09:55:52.289Z,1002.92
2022-08-14T09:56:59.470Z,1002.90
2022-08-14T09:57:53.253Z,1002.93
2022-08-14T09:58:52.237Z,1002.95
2022-08-14T09:59:52.233Z,1002.98
2022-08-14T10:00:52.812Z,1002.95
2022-08-14T10:01:53.045Z,1002.96
2022-08-14T10:02:52.257Z,1002.93
2022-08-14T10:03:52.431Z,1002.95
2022-08-14T10:04:52.174Z,1002.93
2022-08-14T10:05:52.183Z,1002.87
2022-08-14T10:06:52.166Z,1002.86
2022-08-14T10:07:53.552Z,1002.84
2022-08-14T10:08:53.142Z,1002.86
2022-08-14T10:10:01.972Z,1002.80
2022-08-14T10:11:02.495Z,1002.76
2022-08-14T10:11:58.775Z,1002.81
2022-08-14T10:12:55.034Z,1002.79
2022-08-14T10:13:53.673Z,1002.77
2022-08-14T10:14:53.121Z,1002.75
2022-08-14T10:15:52.089Z,1002.73
2022-08-14T10:16:52.051Z,1002.74
2022-08-14T10:17:53.232Z,1002.72
2022-08-14T10:18:52.031Z,1002.69
2022-08-14T10:19:52.024Z,1002.67
2022-08-14T10:20:52.026Z,1002.68
2022-08-14T10:23:06.336Z,1002.69
2022-08-14T10:23:11.746Z,1002.67
2022-08-14T10:23:53.136Z,1002.73
2022-08-14T10:24:51.976Z,1002.71
2022-08-14T10:25:52.936Z,1002.69
2022-08-14T10:26:51.959Z,1002.65
2022-08-14T10:27:56.934Z,1002.56
2022-08-14T10:29:14.171Z,1002.68
2022-08-14T10:29:52.929Z,1002.61
2022-08-14T10:30:51.930Z,1002.59
2022-08-14T10:31:51.909Z,1002.62
2022-08-14T10:32:52.500Z,1002.64
2022-08-14T10:33:51.885Z,1002.65
2022-08-14T10:34:52.692Z,1002.65
2022-08-14T10:35:51.888Z,1002.70
2022-08-14T10:37:02.645Z,1002.67
2022-08-14T10:37:52.865Z,1002.67
2022-08-14T10:38:52.039Z,1002.62
2022-08-14T10:40:02.144Z,1002.60
2022-08-14T10:40:59.332Z,1002.58
2022-08-14T10:41:54.081Z,1002.57
2022-08-14T10:42:51.796Z,1002.57
2022-08-14T10:43:51.788Z,1002.55
2022-08-14T10:44:52.584Z,1002.53
2022-08-14T10:45:59.570Z,1002.53
2022-08-14T10:47:39.186Z,1002.47
2022-08-14T10:48:08.010Z,1002.57
2022-08-14T10:48:52.737Z,1002.54
2022-08-14T10:49:53.342Z,1002.51
2022-08-14T10:50:51.777Z,1002.53
2022-08-14T10:51:51.717Z,1002.52
2022-08-14T10:52:51.704Z,1002.48
2022-08-14T10:53:55.735Z,1002.49
2022-08-14T10:54:56.275Z,1002.51
2022-08-14T10:55:51.671Z,1002.50
2022-08-14T10:56:51.674Z,1002.52
2022-08-14T10:57:51.659Z,1002.53
2022-08-14T10:58:51.652Z,1002.52
2022-08-14T10:59:51.639Z,1002.56
2022-08-14T11:00:51.641Z,1002.54
2022-08-14T11:01:51.619Z,1002.47
2022-08-14T11:02:54.984Z,1002.23
2022-08-14T11:03:56.726Z,1002.23
2022-08-14T11:04:52.628Z,1002.34
2022-08-14T11:05:55.620Z,1002.33
2022-08-14T11:06:51.586Z,1002.30
2022-08-14T11:07:52.293Z,1002.34
2022-08-14T11:08:51.549Z,1002.32
2022-08-14T11:09:51.535Z,1002.32
2022-08-14T11:10:52.856Z,1002.20
2022-08-14T11:11:55.195Z,1002.28
2022-08-14T11:12:51.505Z,1002.11
2022-08-14T11:13:51.496Z,1002.14
2022-08-14T11:14:51.490Z,1002.09
2022-08-14T11:15:52.667Z,1002.10
2022-08-14T11:16:53.352Z,1002.14
2022-08-14T11:17:51.462Z,1002.14
2022-08-14T11:18:51.447Z,1002.11
2022-08-14T11:19:53.939Z,1002.11
2022-08-14T11:20:51.430Z,1002.09
2022-08-14T11:21:51.438Z,1002.12
2022-08-14T11:22:55.889Z,1002.07
2022-08-14T11:23:53.446Z,1002.06
2022-08-14T11:24:55.851Z,1002.05
2022-08-14T11:25:53.209Z,1002.02
2022-08-14T11:26:51.385Z,1001.99
2022-08-14T11:27:51.362Z,1001.95
2022-08-14T11:28:51.344Z,1001.89
2022-08-14T11:29:52.527Z,1001.84
2022-08-14T11:30:54.419Z,1001.87
2022-08-14T11:31:51.747Z,1001.80
2022-08-14T11:32:51.313Z,1001.85
2022-08-14T11:33:51.313Z,1001.82
2022-08-14T11:34:51.291Z,1001.81
2022-08-14T11:35:51.281Z,1001.79
2022-08-14T11:37:17.919Z,1001.75
2022-08-14T11:37:52.262Z,1001.76
2022-08-14T11:38:51.541Z,1001.77
2022-08-14T11:39:51.436Z,1001.74
2022-08-14T11:40:52.579Z,1001.70
2022-08-14T11:41:55.844Z,1001.72
2022-08-14T11:42:58.367Z,1001.65
2022-08-14T11:43:57.880Z,1001.71
2022-08-14T11:44:53.619Z,1001.67
2022-08-14T11:45:52.199Z,1001.65
2022-08-14T11:46:51.179Z,1001.62
2022-08-14T11:48:12.546Z,1001.63
2022-08-14T11:49:02.018Z,1001.59
2022-08-14T11:49:52.169Z,1001.56
2022-08-14T11:50:51.126Z,1001.50
2022-08-14T11:51:53.797Z,1001.50
2022-08-14T11:52:51.162Z,1001.44
2022-08-14T11:53:51.104Z,1001.42
2022-08-14T11:54:51.081Z,1001.39
2022-08-14T11:55:51.072Z,1001.35
2022-08-14T11:56:51.083Z,1001.42
2022-08-14T11:58:00.029Z,1001.42
2022-08-14T11:58:52.039Z,1001.43
2022-08-14T11:59:51.037Z,1001.41
2022-08-14T12:00:52.519Z,1001.49
2022-08-14T12:01:51.028Z,1001.49
2022-08-14T12:03:02.555Z,1001.48
2022-08-14T12:03:57.454Z,1001.44
2022-08-14T12:04:52.020Z,1001.47
2022-08-14T12:05:50.969Z,1001.41
2022-08-14T12:06:51.632Z,1001.43
2022-08-14T12:07:50.949Z,1001.44
2022-08-14T12:08:52.790Z,1001.40
2022-08-14T12:09:50.940Z,1001.39